Flight Track Log - Related Links

Times and Time Zones

All times are in EDT time to prevent confusion due to time zone crossing. See the SWA3675 flight status page for this flight to view local times or setup timezone preferences in your user account.

Time Position Orientation Groundspeed Altitude Reporting Facility
EDT Latitude Longitude Course Direction KTS MPH feet Rate Location/Type
Wed 07:03:12 PM 42.7236 -73.8081 179° South 146 168 1,600  Level Boston Center
Wed 07:03:42 PM 42.7028 -73.8075 179° South 156 180 2,300 2,901 Climbing Boston Center
Wed 07:04:43 PM 42.6486 -73.8036 177° South 208 239 6,000 3,097 Climbing Boston Center
Wed 07:05:15 PM 42.6214 -73.8058 183° South 221 254 7,100 2,674 Climbing Boston Center
Wed 07:06:15 PM 42.5447 -73.7814 167° South 255 293 10,100 2,682 Climbing Boston Center
Wed 07:07:27 PM 42.5042 -73.6736 117° Southeast 268 308 13,000 3,045 Climbing Boston Center
Wed 07:08:27 PM 42.4406 -73.5653 128° Southeast 324 373 16,800 2,300 Climbing Boston Center
Wed 07:09:27 PM 42.3772 -73.4519 127° Southeast 345 397 17,600 1,800 Climbing Boston Center
Wed 07:10:27 PM 42.3175 -73.3469 128° Southeast 351 404 20,400 2,700 Climbing Boston Center
Wed 07:11:27 PM 42.2539 -73.2367 128° Southeast 356 410 23,000 1,300 Climbing Boston Center
Wed 07:12:27 PM 42.1878 -73.1239 128° Southeast 374 430 23,000 400 Level Boston Center
Wed 07:13:27 PM 42.1217 -73.0083 128° Southeast 379 436 23,800 2,050 Climbing Boston Center
Wed 07:14:27 PM 42.0597 -72.8903 125° Southeast 385 443 27,100 2,100 Climbing Boston Center
Wed 07:15:27 PM 42.0100 -72.8033 128° Southeast 380 437 28,000 409 Climbing Boston Center
Wed 07:16:39 PM 41.9292 -72.6633 128° Southeast 386 444 28,000  Level Boston Center
Wed 07:17:39 PM 41.8103 -72.6461 174° South 330 380 28,000  Level Boston Center
Wed 07:18:39 PM 41.7000 -72.6903 197° South 353 406 28,000  Level Boston Center
Wed 07:19:39 PM 41.5956 -72.7289 195° South 375 432 28,000  Level Boston Center
Wed 07:20:39 PM 41.4933 -72.7644 195° South 375 432 28,000  Level Boston Center
Wed 07:21:39 PM 41.3892 -72.8025 195° South 375 432 28,000  Level Boston Center
Wed 07:22:39 PM 41.2847 -72.8433 196° South 381 438 28,000  Level Boston Center
Wed 07:23:39 PM 41.1761 -72.8842 196° South 394 453 28,000  Level Boston Center
Wed 07:24:39 PM 41.0719 -72.9219 195° South 394 453 28,000  Level Boston Center
Wed 07:25:39 PM 40.9717 -72.9625 197° South 394 453 28,000  Level Boston Center
Wed 07:26:39 PM 40.8797 -72.9944 195° South 369 425 28,000  Level Boston Center
Wed 07:27:39 PM 40.7900 -73.0267 195° South 351 404 28,000  Level Boston Center
Wed 07:28:39 PM 40.7128 -73.0725 204° Southwest 341 392 28,000 -450 Level Boston Center
Wed 07:29:39 PM 40.6331 -73.1403 213° Southwest 341 392 27,100 -950 Descending Boston Center
Wed 07:30:39 PM 40.5575 -73.2103 215° Southwest 346 398 26,100 -1,000 Descending Boston Center
Wed 07:31:39 PM 40.4758 -73.2722 210° Southwest 341 392 25,100 -1,000 Descending Boston Center
Wed 07:32:39 PM 40.4044 -73.3394 216° Southwest 341 392 24,100 -550 Descending Boston Center
Wed 07:33:39 PM 40.3269 -73.4008 211° Southwest 336 387 24,000 -50 Descending Boston Center
Wed 07:34:39 PM 40.2514 -73.4650 213° Southwest 325 374 24,000  Level Boston Center
Wed 07:35:39 PM 40.1800 -73.5264 213° Southwest 325 374 24,000  Level Boston Center
Wed 07:37:18 PM 40.0494 -73.6319 212° Southwest 326 375 24,000  Level Washington Center
Wed 07:38:19 PM 39.9733 -73.6936 212° Southwest 326 375 24,000  Level Washington Center
Wed 07:39:19 PM 39.8975 -73.7578 213° Southwest 321 369 24,000  Level Washington Center
Wed 07:40:18 PM 39.8253 -73.8192 213° Southwest 321 369 24,000  Level Washington Center
Wed 07:41:19 PM 39.7492 -73.8833 213° Southwest 321 369 24,000  Level Washington Center
Wed 07:42:19 PM 39.6731 -73.9442 212° Southwest 321 369 24,000  Level Washington Center
Wed 07:43:17 PM 39.5986 -74.0025 211° Southwest 321 369 24,000  Level Washington Center
Wed 07:44:17 PM 39.5328 -74.0578 213° Southwest 321 369 24,000  Level Washington Center
Wed 07:45:18 PM 39.4544 -74.1186 211° Southwest 321 369 24,000  Level Washington Center
Wed 07:46:18 PM 39.3758 -74.1819 212° Southwest 332 382 24,000  Level Washington Center
Wed 07:47:19 PM 39.2975 -74.2453 212° Southwest 337 388 24,000 -50 Level Washington Center
Wed 07:48:17 PM 39.2231 -74.3056 212° Southwest 337 388 23,900 -814 Descending Washington Center
Wed 07:49:17 PM 39.1467 -74.3686 213° Southwest 332 382 22,400 -1,537 Descending Washington Center
Wed 07:50:18 PM 39.0742 -74.4233 210° Southwest 326 375 20,800 -1,587 Descending Washington Center
Wed 07:51:18 PM 39.0019 -74.4831 213° Southwest 314 361 19,200 -1,388 Descending Washington Center
Wed 07:52:19 PM 38.9378 -74.5481 218° Southwest 314 361 18,000 -1,041 Descending Washington Center
Wed 07:53:19 PM 38.9178 -74.6553 257° West 294 338 17,100 -966 Descending Washington Center
Wed 07:54:17 PM 38.8958 -74.7647 256° West 297 342 16,100 -605 Descending Washington Center
Wed 07:55:18 PM 38.8778 -74.8636 257° West 305 351 15,900 -98 Descending Washington Center
Wed 07:56:19 PM 38.8575 -74.9706 256° West 300 345 15,900  Level Washington Center
Wed 07:57:17 PM 38.8372 -75.0772 256° West 300 345 15,900 -51 Level Washington Center
Wed 07:58:17 PM 38.8167 -75.1839 256° West 300 345 15,800  Descending Washington Center
Wed 07:59:19 PM 38.8044 -75.2933 262° West 307 353 15,900 49 Climbing Washington Center
Wed 08:00:20 PM 38.7983 -75.4000 266° West 312 359 15,900 51 Level Washington Center
Wed 08:01:17 PM 38.7922 -75.5117 266° West 312 359 16,000 50 Climbing Washington Center
Wed 08:02:19 PM 38.7842 -75.6208 265° West 312 359 16,000 -98 Level Washington Center
Wed 08:03:19 PM 38.7778 -75.7328 266° West 312 359 15,800 -915 Descending Washington Center
Wed 08:04:17 PM 38.7714 -75.8419 266° West 307 353 14,200 -1,678 Descending Washington Center
Wed 08:05:17 PM 38.7647 -75.9483 265° West 307 353 12,500 -1,271 Descending Washington Center
Wed 08:07:07 PM 38.7500 -76.1500 265° West 278 320 10,600 -1,134 Descending Potomac TRACON
Wed 08:08:01 PM 38.7500 -76.2333 270° West 279 321 9,400 -1,300 Descending Potomac TRACON
Wed 08:09:07 PM 38.7500 -76.3333 270° West 274 315 8,000 -1,381 Descending Potomac TRACON
Wed 08:10:07 PM 38.8167 -76.3833 330° Northwest 288 331 6,500 -1,526 Descending Potomac TRACON
Wed 08:11:01 PM 38.8833 -76.4333 330° Northwest 283 326 5,100 -1,250 Descending Potomac TRACON
Wed 08:12:07 PM 38.9500 -76.4833 330° Northwest 274 315 4,000 -744 Descending Potomac TRACON
Wed 08:13:02 PM 39.0167 -76.5167 339° North 233 268 3,600 -694 Descending Potomac TRACON
Wed 08:14:08 PM 39.0667 -76.5667 322° Northwest 207 238 2,600 -900 Descending Potomac TRACON
Wed 08:15:02 PM 39.1000 -76.6000 322° Northwest 163 188 1,800 -895 Descending Potomac TRACON
Wed 08:16:02 PM 39.1333 -76.6333 322° Northwest 141 162 900 -900 Descending Potomac TRACON
Wed 08:18:00 PM 39.1667 -76.6667 326° Northwest  Level FlightAware Approximate
Wed 08:25:00 PM 39.1754 -76.6683 326° Northwest  Level Estimated
Wed 08:26:00 PM 39.1754 -76.6683 326° Northwest  Level Estimated
Wed 08:27:00 PM 39.1754 -76.6683 326° Northwest  Level Estimated

Login

Don't have an account? Register now (free) for customized features, flight alerts, and more!